Skiatook, Oklahoma
Current Conditions -  °F | °C
As of 4:53 AM on Friday 24 Oct 2014 (Local Time) from KTUL Reporting Station
Overcast Overcast  
Wind Chill: 60°   Ceiling: 4900
Heat Index: 60°   Visibility: 10mi
Dew Point: 55°   Wind: 9mph
Humidity: 83%   Direction: 170°S
Pressure: 30.09"   Gusts: NA
Location:  36.37°N, 96°W
Report Text: KTUL 240953Z 17008KT 10SM OVC049 16/13 A3009 RMK AO2 SLP185 T01560128
Loading
Personal Weather Stations






























Interactive Weather Map
Tropical Storm Tracking
New forecast layout! Learn more

10-Day Weather Forecast

Advertisements
Track Severe Weather on mobile